Terminal Aerodrome Forecast
Issued by NWS Shreveport, LA

Home | Current Version | Previous Version | Text Only | Print | Product List | Glossary On
Versions: 1 2 3 4 5 6 7 8 9 10 11 12 13 14 15 16 17 18 19 20
673
FTUS44 KSHV 081318 AAA
TAFGGG
TAF AMD
KGGG 081318Z 0813/0912 01009KT P6SM OVC040
     FM081500 02012G18KT P6SM BKN050 OVC150
     FM090100 35006KT P6SM BKN150
     FM090900 36004KT P6SM SKC=

USA.gov is the U.S. government's official web portal to all federal, state and local government web resources and services.